Time;durP1;ratioP1;P1;durP2;ratioP2;P2;SDS_P1;SDS_P2;PMS_P1;PMS_P2;Temp;Humidity;BMP_temperature;BMP_pressure;BME280_temperature;BME280_humidity;BME280_pressure;Samples;Min_cycle;Max_cycle;Signal;HPM_P1;HPM_P2
2022/05/03 00:00:09;;;;;;;12.32;11.07;;;15.30;78.30;;;;;;5007384;28;20022;-51
2022/05/03 00:02:43;;;;;;;12.02;10.10;;;15.40;78.50;;;;;;5012816;28;20393;-52
2022/05/03 00:05:22;;;;;;;12.18;10.93;;;15.50;78.50;;;;;;5009542;28;20490;-51
2022/05/03 00:08:19;;;;;;;11.18;10.07;;;15.60;78.50;;;;;;5010179;28;20394;-52
2022/05/03 00:11:28;;;;;;;14.68;10.85;;;15.80;78.30;;;;;;5009592;28;20030;-53
2022/05/03 00:14:22;;;;;;;14.45;12.23;;;15.70;78.50;;;;;;5008411;28;20401;-49
2022/05/03 00:16:49;;;;;;;14.23;12.80;;;15.50;80.20;;;;;;5011791;28;20057;-55
2022/05/03 00:19:15;;;;;;;12.77;11.48;;;15.40;81.20;;;;;;5008199;28;20038;-55
2022/05/03 00:21:40;;;;;;;12.57;10.80;;;15.30;81.50;;;;;;5012720;28;20030;-57
2022/05/03 00:24:07;;;;;;;13.63;11.77;;;15.20;80.70;;;;;;5012460;28;20152;-56
2022/05/03 00:26:34;;;;;;;17.00;14.02;;;15.20;80.00;;;;;;5010452;28;20413;-52
2022/05/03 00:29:00;;;;;;;15.48;12.43;;;15.30;79.80;;;;;;5010963;28;20097;-55
2022/05/03 00:31:27;;;;;;;13.63;11.00;;;15.30;79.70;;;;;;5011299;28;20061;-53
2022/05/03 00:33:54;;;;;;;12.88;11.20;;;15.40;80.00;;;;;;5010335;28;20089;-56
2022/05/03 00:36:20;;;;;;;12.07;10.13;;;15.40;80.40;;;;;;5009337;28;20022;-54
2022/05/03 00:38:46;;;;;;;11.88;10.23;;;15.50;80.30;;;;;;5013450;28;20022;-49
2022/05/03 00:41:25;;;;;;;12.52;10.80;;;15.60;80.20;;;;;;5011027;28;20410;-52
2022/05/03 00:44:02;;;;;;;13.05;11.05;;;15.50;80.00;;;;;;5011797;28;20490;-53
2022/05/03 00:46:34;;;;;;;13.27;11.95;;;15.50;80.40;;;;;;5007251;28;20066;-54
2022/05/03 00:49:25;;;;;;;12.30;11.18;;;15.40;80.60;;;;;;5010578;28;20437;-50
2022/05/03 00:52:22;;;;;;;12.95;11.63;;;15.30;82.20;;;;;;5007540;28;20037;-50
2022/05/03 00:55:30;;;;;;;13.38;11.23;;;15.20;82.50;;;;;;5008782;28;20032;-53
2022/05/03 00:58:04;;;;;;;13.13;11.52;;;15.00;82.10;;;;;;5008169;28;20034;-53
2022/05/03 01:00:34;;;;;;;13.68;11.45;;;15.00;82.00;;;;;;5009712;28;20493;-48
2022/05/03 01:03:06;;;;;;;13.57;12.23;;;15.10;82.90;;;;;;5010322;28;20046;-54
2022/05/03 01:05:47;;;;;;;13.48;11.52;;;15.10;83.30;;;;;;5005837;28;20119;-53
2022/05/03 01:08:36;;;;;;;14.70;12.15;;;15.10;83.10;;;;;;5010553;28;20030;-54
2022/05/03 01:11:53;;;;;;;14.38;11.75;;;15.00;82.90;;;;;;5006949;28;20030;-53
2022/05/03 01:14:53;;;;;;;13.82;12.40;;;15.00;83.10;;;;;;4978858;28;20093;-53
2022/05/03 01:17:45;;;;;;;14.10;12.70;;;14.90;84.60;;;;;;5010619;28;20526;-52
2022/05/03 01:20:15;;;;;;;14.05;12.50;;;14.80;84.10;;;;;;5006703;28;20293;-52
2022/05/03 01:22:47;;;;;;;16.33;12.73;;;14.60;84.20;;;;;;5011498;28;20072;-53
2022/05/03 01:25:31;;;;;;;14.98;13.45;;;14.50;84.40;;;;;;5008435;28;20033;-55
2022/05/03 01:28:13;;;;;;;13.18;11.93;;;14.40;84.20;;;;;;5009958;28;20497;-52
2022/05/03 01:30:45;;;;;;;16.05;13.80;;;14.40;84.60;;;;;;5010709;28;20033;-52
2022/05/03 01:33:16;;;;;;;15.27;13.75;;;14.40;84.40;;;;;;5010539;28;20038;-49
2022/05/03 01:35:46;;;;;;;20.60;13.60;;;14.40;84.80;;;;;;5010638;28;20050;-51
2022/05/03 01:38:29;;;;;;;14.55;13.02;;;14.30;84.70;;;;;;5009774;28;20118;-51
2022/05/03 01:41:31;;;;;;;15.23;12.77;;;14.10;85.00;;;;;;5008625;28;20135;-54
2022/05/03 01:44:25;;;;;;;14.88;12.80;;;14.00;85.90;;;;;;5010195;28;20488;-51
2022/05/03 01:46:57;;;;;;;15.95;14.02;;;13.90;86.40;;;;;;5010389;28;20042;-54
2022/05/03 01:52:57;;;;;;;18.00;14.23;;;13.70;87.10;;;;;;5007664;28;20018;-56
2022/05/03 01:55:36;;;;;;;16.13;13.30;;;13.60;87.30;;;;;;5010372;28;20026;-54
2022/05/03 01:58:20;;;;;;;16.27;13.57;;;13.50;88.10;;;;;;5011162;28;20053;-58
2022/05/03 02:00:56;;;;;;;18.75;15.60;;;13.50;88.10;;;;;;5009576;28;20026;-56
2022/05/03 02:03:46;;;;;;;17.83;14.50;;;13.30;88.20;;;;;;5010354;28;20030;-53
2022/05/03 02:06:16;;;;;;;16.38;14.68;;;13.30;88.70;;;;;;5008906;28;20076;-51
2022/05/03 02:09:02;;;;;;;17.33;15.20;;;13.40;88.00;;;;;;5010727;28;20215;-50
2022/05/03 02:12:04;;;;;;;16.80;15.07;;;13.30;88.10;;;;;;5004175;28;20027;-51
2022/05/03 02:14:46;;;;;;;17.92;14.95;;;13.20;88.40;;;;;;5008367;28;20022;-52
2022/05/03 02:17:14;;;;;;;18.35;15.05;;;13.10;88.20;;;;;;5009575;28;20026;-55
2022/05/03 02:20:13;;;;;;;16.00;14.35;;;13.10;88.40;;;;;;5014426;28;20486;-55
2022/05/03 02:23:06;;;;;;;16.10;14.45;;;13.10;88.40;;;;;;5014202;28;20038;-56
2022/05/03 02:25:35;;;;;;;17.02;14.60;;;13.10;88.50;;;;;;5010105;28;20022;-48
2022/05/03 02:28:14;;;;;;;18.08;14.40;;;13.00;88.50;;;;;;5014439;28;20026;-54
2022/05/03 02:30:42;;;;;;;20.67;15.80;;;13.10;89.00;;;;;;5011797;28;20038;-52
2022/05/03 02:33:18;;;;;;;20.38;15.93;;;13.20;88.70;;;;;;5011617;28;20064;-51
2022/05/03 02:35:49;;;;;;;17.13;15.32;;;13.10;88.80;;;;;;5015446;28;20441;-53
2022/05/03 02:38:20;;;;;;;17.63;15.45;;;13.00;88.40;;;;;;5014992;28;20360;-49
2022/05/03 02:40:49;;;;;;;18.25;15.43;;;13.00;88.40;;;;;;5011229;28;20504;-52
2022/05/03 02:43:16;;;;;;;19.00;15.63;;;12.80;89.10;;;;;;5014345;28;20044;-48
2022/05/03 02:45:53;;;;;;;19.15;15.57;;;12.80;89.20;;;;;;5011518;28;20041;-52
2022/05/03 02:48:29;;;;;;;18.92;16.02;;;12.80;89.20;;;;;;5015019;28;20030;-54
2022/05/03 02:51:03;;;;;;;20.65;16.73;;;12.70;89.20;;;;;;5010217;28;20045;-55
2022/05/03 02:53:43;;;;;;;21.55;15.63;;;12.70;89.90;;;;;;5012536;28;20029;-53
2022/05/03 02:56:12;;;;;;;17.98;16.08;;;12.80;89.50;;;;;;5010680;28;20454;-48
2022/05/03 02:59:19;;;;;;;17.58;15.63;;;12.70;89.50;;;;;;5011207;28;20037;-53
2022/05/03 03:01:56;;;;;;;19.25;16.23;;;12.70;90.00;;;;;;5006797;28;20121;-55
2022/05/03 03:04:43;;;;;;;20.13;16.33;;;12.40;90.50;;;;;;5012819;28;20458;-55
2022/05/03 03:07:12;;;;;;;18.67;16.67;;;12.40;90.50;;;;;;5009909;28;20466;-55
2022/05/03 03:09:41;;;;;;;18.67;16.77;;;12.40;90.40;;;;;;5014107;28;20030;-52
2022/05/03 03:12:45;;;;;;;21.30;16.95;;;12.30;90.70;;;;;;5007954;28;20068;-54
2022/05/03 03:15:16;;;;;;;18.98;16.00;;;12.30;90.30;;;;;;5008493;28;20098;-51
2022/05/03 03:17:47;;;;;;;19.65;16.20;;;12.20;90.60;;;;;;5013019;28;20045;-54
2022/05/03 03:20:14;;;;;;;17.63;15.65;;;12.20;90.70;;;;;;5013036;28;20416;-55
2022/05/03 03:22:42;;;;;;;18.80;16.17;;;12.00;90.80;;;;;;5013502;28;20022;-48
2022/05/03 03:25:10;;;;;;;20.90;15.93;;;12.00;90.60;;;;;;5010627;28;20068;-51
2022/05/03 03:27:37;;;;;;;19.13;16.30;;;11.90;90.70;;;;;;5010640;28;20056;-49
2022/05/03 03:30:06;;;;;;;19.33;16.23;;;12.00;90.60;;;;;;5009361;28;20339;-55
2022/05/03 03:32:34;;;;;;;22.13;17.02;;;12.00;90.90;;;;;;5012932;28;20025;-52
2022/05/03 03:35:01;;;;;;;18.42;16.02;;;11.90;90.90;;;;;;5011317;28;20083;-51
2022/05/03 03:37:31;;;;;;;19.88;17.05;;;11.90;91.00;;;;;;5013261;28;20025;-53
2022/05/03 03:39:57;;;;;;;19.42;15.23;;;12.10;90.60;;;;;;5012625;28;20509;-53
2022/05/03 03:42:26;;;;;;;20.13;16.25;;;12.00;90.70;;;;;;5013281;28;20026;-54
2022/05/03 03:44:52;;;;;;;20.10;15.63;;;12.00;90.60;;;;;;5013967;28;20482;-54
2022/05/03 03:47:17;;;;;;;17.00;15.23;;;12.00;90.30;;;;;;5011406;28;20057;-54
2022/05/03 03:49:43;;;;;;;17.52;15.65;;;12.00;90.10;;;;;;5012232;28;20062;-56
2022/05/03 03:52:11;;;;;;;17.73;15.48;;;12.10;90.10;;;;;;5010255;28;20626;-56
2022/05/03 03:54:40;;;;;;;18.83;15.73;;;12.10;90.00;;;;;;5009604;28;20025;-55
2022/05/03 03:57:07;;;;;;;18.52;16.65;;;11.90;90.00;;;;;;5012726;28;20026;-55
2022/05/03 03:59:33;;;;;;;18.42;15.35;;;11.80;90.10;;;;;;5009988;28;20564;-53
2022/05/03 04:02:00;;;;;;;20.73;15.95;;;11.70;90.20;;;;;;5012684;28;20033;-56
2022/05/03 04:04:30;;;;;;;17.77;15.57;;;11.70;90.20;;;;;;5011560;28;20567;-56
2022/05/03 04:06:56;;;;;;;18.33;16.30;;;11.70;90.30;;;;;;5013192;28;20073;-58
2022/05/03 04:09:21;;;;;;;19.65;16.05;;;11.80;90.00;;;;;;5010160;28;20093;-56
2022/05/03 04:11:47;;;;;;;20.00;15.35;;;11.70;90.10;;;;;;5009952;28;20030;-56
2022/05/03 04:14:14;;;;;;;20.52;15.80;;;11.70;89.90;;;;;;5008719;28;20044;-54
2022/05/03 04:16:41;;;;;;;17.85;15.35;;;11.80;89.50;;;;;;5013311;28;20109;-53
2022/05/03 04:19:07;;;;;;;16.75;14.90;;;11.80;89.80;;;;;;5010419;28;20030;-56
2022/05/03 04:21:33;;;;;;;17.02;14.20;;;11.70;89.80;;;;;;5012762;28;20030;-54
2022/05/03 04:23:59;;;;;;;20.67;14.93;;;11.80;89.40;;;;;;5012615;28;20033;-52
2022/05/03 04:26:25;;;;;;;22.90;15.45;;;11.80;89.30;;;;;;5013116;28;20614;-52
2022/05/03 04:28:58;;;;;;;21.85;14.23;;;11.70;89.40;;;;;;5010890;28;20390;-56
2022/05/03 04:31:26;;;;;;;16.38;14.68;;;11.70;89.50;;;;;;5012926;28;20130;-53
2022/05/03 04:33:52;;;;;;;17.00;14.88;;;11.60;89.80;;;;;;5012339;28;20068;-56
2022/05/03 04:36:17;;;;;;;20.08;14.00;;;11.50;89.90;;;;;;5010896;28;20053;-57
2022/05/03 04:38:43;;;;;;;22.55;14.65;;;11.50;90.00;;;;;;5011931;28;20022;-54
2022/05/03 04:41:08;;;;;;;20.88;14.23;;;11.40;90.00;;;;;;5011477;28;20018;-56
2022/05/03 04:43:34;;;;;;;16.00;14.38;;;11.40;89.80;;;;;;5009828;28;20030;-54
2022/05/03 04:46:00;;;;;;;18.00;14.18;;;11.20;90.30;;;;;;5011897;28;20034;-57
2022/05/03 04:48:25;;;;;;;17.60;13.98;;;11.10;90.50;;;;;;5009530;28;20122;-51
2022/05/03 04:50:51;;;;;;;18.55;14.35;;;11.30;90.30;;;;;;5011571;28;20065;-52
2022/05/03 04:53:17;;;;;;;20.98;15.10;;;11.30;90.20;;;;;;5011951;28;20030;-58
2022/05/03 04:55:42;;;;;;;19.55;14.10;;;11.50;90.00;;;;;;5008738;28;20048;-51
2022/05/03 04:58:08;;;;;;;16.80;13.77;;;11.60;89.90;;;;;;5010559;28;20025;-55
2022/05/03 05:00:35;;;;;;;17.23;13.98;;;11.70;89.50;;;;;;5007528;28;20183;-55
2022/05/03 05:03:01;;;;;;;18.75;14.80;;;11.60;89.90;;;;;;5009961;28;20032;-57
2022/05/03 05:05:27;;;;;;;20.13;13.85;;;11.60;89.90;;;;;;5011516;28;20307;-54
2022/05/03 05:07:52;;;;;;;18.90;14.32;;;11.70;89.90;;;;;;5012141;28;20033;-57
2022/05/03 05:10:24;;;;;;;18.67;13.88;;;11.80;89.80;;;;;;5008869;28;20034;-56
2022/05/03 05:12:50;;;;;;;17.52;14.38;;;11.80;89.60;;;;;;5010865;28;20026;-56
2022/05/03 05:15:16;;;;;;;17.98;14.45;;;11.70;89.40;;;;;;5009310;28;20049;-55
2022/05/03 05:17:42;;;;;;;15.82;13.15;;;11.80;89.70;;;;;;5011925;28;20072;-58
2022/05/03 05:20:08;;;;;;;17.25;15.35;;;11.80;89.50;;;;;;5006178;28;20026;-55
2022/05/03 05:22:34;;;;;;;20.65;15.00;;;11.90;89.10;;;;;;5010369;28;20026;-54
2022/05/03 05:24:59;;;;;;;19.40;13.48;;;12.00;88.60;;;;;;5009385;28;20106;-53
2022/05/03 05:27:25;;;;;;;16.63;14.20;;;11.70;89.40;;;;;;5011927;28;20053;-57
2022/05/03 05:29:50;;;;;;;19.48;13.57;;;11.80;89.70;;;;;;5012140;28;20065;-56
2022/05/03 05:32:16;;;;;;;15.80;13.48;;;11.90;89.60;;;;;;5009105;28;20033;-53
2022/05/03 05:34:42;;;;;;;18.83;13.88;;;11.90;89.20;;;;;;5013339;28;20037;-56
2022/05/03 05:37:07;;;;;;;23.23;13.25;;;12.00;89.00;;;;;;5011102;28;20032;-54
2022/05/03 05:39:33;;;;;;;22.85;13.85;;;11.90;89.40;;;;;;5011711;28;20046;-53
2022/05/03 05:42:02;;;;;;;17.88;13.48;;;11.80;89.60;;;;;;5011759;28;20061;-56
2022/05/03 05:44:28;;;;;;;18.38;13.70;;;12.10;89.00;;;;;;5012559;28;20088;-53
2022/05/03 05:46:54;;;;;;;18.63;12.80;;;12.10;88.90;;;;;;5008360;28;20038;-55
2022/05/03 05:49:20;;;;;;;15.88;12.70;;;12.20;89.10;;;;;;5011343;28;20026;-55
2022/05/03 05:51:46;;;;;;;17.60;12.15;;;12.40;88.60;;;;;;5007647;28;20022;-52
2022/05/03 05:54:12;;;;;;;17.10;11.80;;;12.40;87.50;;;;;;5010783;28;20110;-57
2022/05/03 05:56:40;;;;;;;16.33;11.70;;;12.40;86.70;;;;;;5011168;28;20365;-57
2022/05/03 05:59:05;;;;;;;16.83;11.60;;;12.20;87.10;;;;;;5011642;28;20022;-55
2022/05/03 06:01:41;;;;;;;16.35;11.43;;;12.20;87.60;;;;;;5012717;28;20056;-54
2022/05/03 06:04:07;;;;;;;19.63;12.55;;;12.20;87.40;;;;;;5012296;28;20026;-54
2022/05/03 06:06:36;;;;;;;14.00;11.18;;;12.00;88.00;;;;;;5013163;28;20085;-57
2022/05/03 06:09:03;;;;;;;13.65;11.52;;;12.10;88.20;;;;;;5013642;28;20046;-57
2022/05/03 06:11:32;;;;;;;17.13;12.30;;;12.20;87.40;;;;;;5012768;28;20026;-56
2022/05/03 06:14:21;;;;;;;14.35;11.95;;;12.20;87.30;;;;;;4993837;28;20022;-56
2022/05/03 06:16:53;;;;;;;17.55;11.98;;;12.30;87.10;;;;;;5009703;28;20034;-56
2022/05/03 06:19:19;;;;;;;15.27;11.77;;;12.40;86.60;;;;;;5011041;28;20032;-53
2022/05/03 06:21:45;;;;;;;17.30;11.35;;;12.50;86.00;;;;;;5010753;28;20034;-55
2022/05/03 06:24:11;;;;;;;17.92;10.90;;;12.50;86.40;;;;;;5009570;28;20087;-59
2022/05/03 06:26:37;;;;;;;13.30;10.57;;;12.50;85.60;;;;;;5009322;28;20060;-55
2022/05/03 06:29:06;;;;;;;16.05;9.98;;;12.40;86.00;;;;;;5010755;28;20053;-58
2022/05/03 06:31:35;;;;;;;14.80;10.77;;;12.60;85.90;;;;;;5008728;28;20053;-55
2022/05/03 06:34:01;;;;;;;15.48;9.85;;;12.80;85.00;;;;;;5009802;28;20034;-55
2022/05/03 06:36:27;;;;;;;18.13;10.43;;;12.70;84.40;;;;;;5010712;28;20036;-56
2022/05/03 06:38:53;;;;;;;15.93;10.85;;;12.80;84.70;;;;;;5010415;28;20410;-57
2022/05/03 06:41:18;;;;;;;15.68;11.27;;;12.80;84.10;;;;;;5010131;28;20026;-56
2022/05/03 06:43:44;;;;;;;13.55;10.70;;;12.70;84.60;;;;;;5011050;28;20037;-54
2022/05/03 06:46:10;;;;;;;14.23;11.50;;;12.70;84.60;;;;;;5008355;28;20026;-57
2022/05/03 06:48:36;;;;;;;15.57;11.65;;;12.50;85.40;;;;;;5011116;28;20042;-57
2022/05/03 06:51:02;;;;;;;13.15;11.05;;;12.50;85.50;;;;;;5007794;28;20030;-57
2022/05/03 06:53:28;;;;;;;14.70;10.73;;;12.70;85.30;;;;;;5016204;28;20042;-55
2022/05/03 06:55:54;;;;;;;15.27;10.77;;;13.00;85.10;;;;;;5005233;28;20030;-53
2022/05/03 06:58:19;;;;;;;14.15;11.30;;;13.20;84.20;;;;;;5011105;28;20046;-51
2022/05/03 07:00:45;;;;;;;13.57;10.48;;;13.30;83.70;;;;;;4987338;28;20038;-56
2022/05/03 07:03:12;;;;;;;12.30;10.32;;;13.10;83.90;;;;;;5012266;28;20054;-55
2022/05/03 07:05:38;;;;;;;13.90;10.20;;;13.20;83.80;;;;;;5011279;28;20056;-55
2022/05/03 07:08:04;;;;;;;13.82;9.90;;;13.40;83.50;;;;;;5013767;28;20033;-53
2022/05/03 07:10:30;;;;;;;15.68;10.98;;;13.50;82.40;;;;;;5013341;28;20049;-52
2022/05/03 07:12:56;;;;;;;13.02;9.73;;;13.60;83.60;;;;;;5013685;28;20474;-57
2022/05/03 07:15:23;;;;;;;15.65;10.32;;;13.60;82.80;;;;;;5013711;28;20046;-53
2022/05/03 07:23:17;;;;;;;14.85;9.93;;;13.60;81.70;;;;;;5014755;28;20277;-55
2022/05/03 07:25:46;;;;;;;14.18;9.93;;;13.60;81.60;;;;;;5012456;28;20559;-55
2022/05/03 07:28:12;;;;;;;15.10;9.55;;;13.70;81.60;;;;;;5013736;28;20045;-54
2022/05/03 07:30:37;;;;;;;14.43;9.75;;;13.40;81.40;;;;;;5009607;28;20044;-56
2022/05/03 07:33:03;;;;;;;15.88;10.52;;;13.50;81.70;;;;;;5011690;28;20042;-53
2022/05/03 07:35:30;;;;;;;12.77;8.77;;;13.70;81.90;;;;;;5014001;28;20018;-52
2022/05/03 07:37:56;;;;;;;14.18;9.95;;;13.80;81.80;;;;;;5013722;28;20029;-55
2022/05/03 07:40:22;;;;;;;17.85;9.57;;;14.00;81.00;;;;;;5013683;28;20036;-53
2022/05/03 07:42:47;;;;;;;17.15;10.25;;;14.00;79.90;;;;;;5013932;28;20026;-52
2022/05/03 07:45:13;;;;;;;12.23;9.20;;;14.10;79.70;;;;;;5014313;28;20054;-51
2022/05/03 07:47:39;;;;;;;12.88;9.18;;;14.10;79.60;;;;;;5008277;28;20038;-53
2022/05/03 07:50:05;;;;;;;17.00;9.48;;;14.20;79.60;;;;;;5012834;28;20049;-54
2022/05/03 07:52:31;;;;;;;15.75;8.90;;;14.10;79.80;;;;;;5012703;28;20022;-54
2022/05/03 07:54:57;;;;;;;11.98;8.05;;;14.10;79.10;;;;;;5017729;28;20018;-53
2022/05/03 07:57:24;;;;;;;11.98;8.77;;;14.20;78.90;;;;;;5017514;28;20030;-55
2022/05/03 07:59:50;;;;;;;12.68;8.23;;;14.20;78.80;;;;;;5013287;28;20092;-55
2022/05/03 08:02:16;;;;;;;19.50;8.98;;;14.40;78.30;;;;;;5012467;28;20490;-52
2022/05/03 08:04:41;;;;;;;11.98;8.00;;;14.60;77.10;;;;;;5014639;28;20054;-53
2022/05/03 08:07:07;;;;;;;12.35;8.60;;;14.70;76.90;;;;;;5010190;28;20413;-54
2022/05/03 08:09:34;;;;;;;9.10;7.72;;;14.90;76.70;;;;;;5009619;28;20030;-54
2022/05/03 08:12:00;;;;;;;13.43;8.43;;;15.00;75.40;;;;;;5012576;28;20023;-53
2022/05/03 08:14:28;;;;;;;16.25;9.07;;;15.00;75.30;;;;;;5011624;28;20130;-53
2022/05/03 08:16:55;;;;;;;13.38;8.60;;;15.00;75.30;;;;;;5007609;28;20160;-54
2022/05/03 08:19:21;;;;;;;15.30;8.50;;;14.90;75.50;;;;;;5011172;28;20026;-54
2022/05/03 08:21:47;;;;;;;13.57;8.90;;;14.80;75.20;;;;;;5009092;28;20052;-55
2022/05/03 08:24:12;;;;;;;12.60;9.27;;;14.90;75.40;;;;;;5012360;28;20564;-56
2022/05/03 08:26:38;;;;;;;15.57;8.80;;;15.00;74.70;;;;;;5008791;28;20029;-53
2022/05/03 08:29:03;;;;;;;15.32;8.70;;;15.10;75.00;;;;;;5012568;28;20038;-51
2022/05/03 08:31:29;;;;;;;12.60;8.93;;;15.00;74.70;;;;;;5013548;28;20044;-54
2022/05/03 08:33:54;;;;;;;16.38;9.20;;;15.00;75.40;;;;;;5011919;28;20037;-50
2022/05/03 08:36:20;;;;;;;12.15;8.20;;;15.10;75.30;;;;;;5012185;28;20061;-52
2022/05/03 08:44:31;;;;;;;11.30;9.13;;;15.50;74.00;;;;;;4991235;28;20479;-54
2022/05/03 08:46:59;;;;;;;13.27;8.30;;;15.60;73.10;;;;;;5009871;28;20034;-56
2022/05/03 08:49:38;;;;;;;12.38;8.27;;;15.90;72.80;;;;;;5008806;28;20084;-52
2022/05/03 08:52:08;;;;;;;13.13;8.15;;;15.90;72.40;;;;;;5010919;28;21658;-55
2022/05/03 08:54:36;;;;;;;13.60;7.85;;;16.10;72.40;;;;;;5009450;28;20034;-53
2022/05/03 08:57:08;;;;;;;12.30;8.38;;;16.20;70.90;;;;;;5012135;28;20130;-55
2022/05/03 08:59:37;;;;;;;10.30;8.10;;;16.10;70.60;;;;;;5007235;28;20368;-55
2022/05/03 09:02:04;;;;;;;11.90;8.43;;;16.10;71.00;;;;;;5008313;28;20022;-52
2022/05/03 09:04:30;;;;;;;13.05;7.70;;;16.10;71.40;;;;;;5012126;28;20030;-56
2022/05/03 09:06:56;;;;;;;9.43;8.10;;;16.10;71.90;;;;;;5009249;28;20037;-55
2022/05/03 09:09:22;;;;;;;15.93;8.32;;;16.00;70.90;;;;;;5012575;28;20065;-52
2022/05/03 09:11:53;;;;;;;9.95;7.50;;;16.20;70.90;;;;;;5013788;28;20064;-54
2022/05/03 09:14:42;;;;;;;12.32;7.40;;;16.20;71.90;;;;;;5011638;28;20060;-54
2022/05/03 09:17:08;;;;;;;12.90;8.02;;;16.30;70.40;;;;;;5011916;28;20022;-51
2022/05/03 09:19:33;;;;;;;11.98;7.78;;;16.40;70.00;;;;;;5007863;28;20516;-56
2022/05/03 09:24:54;;;;;;;;;;;16.60;70.40;;;;;;5011812;28;20108;-51
2022/05/03 09:27:21;;;;;;;11.50;7.57;;;16.40;69.30;;;;;;5011032;28;19905;-56
2022/05/03 09:30:07;;;;;;;11.32;8.00;;;16.20;69.60;;;;;;5009083;28;20041;-55
2022/05/03 09:32:44;;;;;;;11.95;7.90;;;16.20;70.30;;;;;;5006765;28;20030;-57
2022/05/03 09:35:35;;;;;;;10.88;7.25;;;16.50;69.70;;;;;;5009494;28;20029;-53
2022/05/03 09:38:04;;;;;;;9.88;7.85;;;16.70;69.10;;;;;;5010749;28;20045;-58
2022/05/03 09:40:41;;;;;;;8.80;7.88;;;16.70;68.80;;;;;;5008198;28;20030;-53
2022/05/03 09:43:08;;;;;;;11.70;8.15;;;16.80;67.80;;;;;;5009354;28;20030;-56
2022/05/03 09:45:34;;;;;;;13.38;8.63;;;16.70;68.20;;;;;;5010686;28;20501;-54
2022/05/03 09:48:00;;;;;;;12.95;8.15;;;16.70;67.80;;;;;;5007259;28;20049;-53
2022/05/03 09:50:32;;;;;;;10.45;8.30;;;16.60;68.70;;;;;;5010669;28;20022;-51
2022/05/03 09:53:08;;;;;;;10.13;9.07;;;16.60;69.20;;;;;;5011706;28;20025;-57
2022/05/03 09:55:36;;;;;;;11.50;8.82;;;16.70;69.00;;;;;;5010481;28;20026;-56
2022/05/03 09:58:07;;;;;;;10.93;8.80;;;16.50;69.10;;;;;;5010936;28;20041;-54
2022/05/03 10:00:34;;;;;;;11.20;8.55;;;16.50;69.30;;;;;;5010803;28;20401;-53
2022/05/03 10:03:01;;;;;;;13.13;8.10;;;16.80;68.80;;;;;;5011399;28;20041;-50
2022/05/03 10:05:28;;;;;;;13.20;8.93;;;17.00;68.90;;;;;;5010868;28;20018;-54
2022/05/03 10:07:54;;;;;;;11.70;8.65;;;17.10;68.70;;;;;;5011295;28;20034;-56
2022/05/03 10:10:21;;;;;;;11.15;7.82;;;17.20;68.50;;;;;;5011283;28;20069;-53
2022/05/03 10:12:49;;;;;;;14.15;8.80;;;17.20;68.50;;;;;;5010998;28;20120;-50
2022/05/03 10:21:05;;;;;;;9.35;7.95;;;17.50;68.40;;;;;;4998317;28;20056;-54
2022/05/03 10:23:33;;;;;;;10.55;7.45;;;17.70;67.60;;;;;;5011354;28;20064;-56
2022/05/03 10:26:09;;;;;;;11.48;8.73;;;18.00;67.20;;;;;;5009146;28;20037;-53
2022/05/03 10:29:05;;;;;;;11.00;8.65;;;17.70;66.70;;;;;;5011553;28;20033;-58
2022/05/03 10:31:51;;;;;;;10.30;9.00;;;17.50;67.10;;;;;;5010940;28;20057;-54
2022/05/03 10:34:38;;;;;;;9.35;8.35;;;17.30;67.50;;;;;;5011638;28;20128;-56
2022/05/03 10:37:03;;;;;;;12.00;8.35;;;17.20;67.50;;;;;;5011506;28;20033;-50
2022/05/03 10:39:29;;;;;;;11.43;8.60;;;17.30;68.00;;;;;;5015576;28;20493;-56
2022/05/03 10:41:56;;;;;;;10.23;8.65;;;17.40;67.70;;;;;;5015087;28;20548;-58
2022/05/03 10:44:46;;;;;;;12.68;9.60;;;17.50;67.50;;;;;;5016078;28;20132;-52
2022/05/03 10:47:20;;;;;;;13.00;8.70;;;17.50;67.20;;;;;;5011466;28;20413;-55
2022/05/03 10:50:19;;;;;;;13.53;8.57;;;17.70;67.20;;;;;;5013283;28;20069;-53
2022/05/03 10:52:45;;;;;;;10.23;9.00;;;17.80;67.20;;;;;;5012491;28;20390;-54
2022/05/03 10:55:11;;;;;;;12.65;9.32;;;17.90;67.10;;;;;;5013189;28;20032;-52
2022/05/03 10:58:14;;;;;;;13.32;9.57;;;17.90;67.30;;;;;;5015707;28;20296;-55
2022/05/03 11:01:05;;;;;;;14.32;9.95;;;17.70;68.00;;;;;;5012594;28;20033;-55
2022/05/03 11:03:32;;;;;;;10.95;8.60;;;17.70;67.70;;;;;;5012454;28;20034;-53
2022/05/03 11:06:19;;;;;;;16.98;10.02;;;17.80;67.40;;;;;;5015354;28;20040;-58
2022/05/03 11:11:42;;;;;;;11.27;9.20;;;18.00;68.00;;;;;;5014225;28;20389;-49
2022/05/03 11:14:22;;;;;;;12.43;9.02;;;18.40;67.60;;;;;;5013832;28;20568;-55
2022/05/03 11:16:50;;;;;;;13.65;9.00;;;18.50;67.10;;;;;;5014035;28;20045;-53
2022/05/03 11:19:18;;;;;;;15.55;8.98;;;18.60;66.10;;;;;;5013513;28;20376;-57
2022/05/03 11:21:45;;;;;;;13.32;9.77;;;18.40;66.40;;;;;;5013208;28;20049;-52
2022/05/03 11:24:21;;;;;;;13.07;9.07;;;18.30;66.50;;;;;;5013634;28;20516;-54
2022/05/03 11:26:57;;;;;;;11.02;9.20;;;18.20;66.30;;;;;;5013375;28;20037;-56
2022/05/03 11:29:50;;;;;;;11.52;9.02;;;18.00;67.10;;;;;;5010633;28;20034;-55
2022/05/03 11:32:27;;;;;;;11.80;9.18;;;18.30;66.80;;;;;;5004611;28;20082;-52
2022/05/03 11:35:20;;;;;;;16.40;8.98;;;18.30;66.20;;;;;;5011563;28;20029;-54
2022/05/03 11:37:48;;;;;;;12.93;9.90;;;18.20;66.50;;;;;;5011782;28;20056;-54
2022/05/03 11:40:15;;;;;;;13.60;10.25;;;18.20;66.70;;;;;;5012837;28;20033;-54
2022/05/03 11:42:43;;;;;;;13.15;9.88;;;18.10;67.10;;;;;;5016832;28;20029;-57
2022/05/03 11:45:10;;;;;;;11.85;8.73;;;18.10;67.20;;;;;;5013605;28;20536;-55
2022/05/03 11:47:41;;;;;;;10.07;9.18;;;18.40;67.10;;;;;;5012222;28;20116;-52
2022/05/03 11:50:08;;;;;;;13.75;10.75;;;18.60;67.40;;;;;;5010205;28;20021;-54
2022/05/03 11:58:06;;;;;;;12.20;10.32;;;18.30;67.50;;;;;;5013930;28;20057;-53
2022/05/03 12:00:44;;;;;;;17.58;10.73;;;18.10;67.40;;;;;;5014583;28;20065;-53
2022/05/03 12:03:09;;;;;;;17.02;10.77;;;18.30;67.20;;;;;;5013799;28;20461;-53
2022/05/03 12:05:36;;;;;;;22.73;13.98;;;18.50;66.80;;;;;;5012816;28;20053;-50
2022/05/03 12:08:02;;;;;;;15.45;9.63;;;18.80;67.20;;;;;;5009634;28;20056;-53
2022/05/03 12:10:34;;;;;;;12.75;9.82;;;18.70;65.90;;;;;;5011944;28;20381;-52
2022/05/03 12:13:02;;;;;;;14.48;10.55;;;18.50;66.10;;;;;;5012245;28;20042;-50
2022/05/03 12:15:28;;;;;;;11.52;9.82;;;18.50;66.70;;;;;;5011866;28;20401;-51
2022/05/03 12:18:09;;;;;;;13.48;10.02;;;18.70;65.90;;;;;;5010971;28;20026;-48
2022/05/03 12:20:54;;;;;;;12.45;9.60;;;18.70;65.70;;;;;;5009723;28;20034;-52
2022/05/03 12:23:20;;;;;;;;;;;18.80;64.90;;;;;;5011211;28;20417;-53
2022/05/03 12:25:57;;;;;;;11.77;9.18;;;18.80;65.20;;;;;;5011914;28;20357;-53
2022/05/03 12:28:40;;;;;;;12.20;9.45;;;19.00;65.10;;;;;;5010824;28;20490;-50
2022/05/03 12:31:08;;;;;;;14.13;10.05;;;19.00;63.20;;;;;;5011667;28;20042;-49
2022/05/03 12:33:59;;;;;;;13.77;10.30;;;19.00;63.30;;;;;;5011995;28;20040;-52
2022/05/03 12:36:30;;;;;;;11.18;9.93;;;19.00;63.30;;;;;;5011126;28;20034;-49
2022/05/03 12:38:56;;;;;;;11.20;9.82;;;19.20;62.30;;;;;;5011813;28;20026;-50
2022/05/03 12:41:28;;;;;;;15.77;9.55;;;19.30;62.90;;;;;;5011807;28;20022;-49
2022/05/03 12:44:00;;;;;;;16.05;11.20;;;19.50;62.70;;;;;;5010900;28;20042;-50
2022/05/03 12:46:28;;;;;;;11.57;10.35;;;19.60;62.90;;;;;;5009887;28;20033;-50
2022/05/03 12:48:53;;;;;;;11.07;9.98;;;19.80;62.60;;;;;;5010289;28;20475;-53
2022/05/03 12:51:19;;;;;;;14.93;9.57;;;20.00;61.70;;;;;;5011657;28;20085;-53
2022/05/03 12:53:47;;;;;;;9.50;8.50;;;19.90;62.10;;;;;;5011816;28;20026;-49
2022/05/03 12:58:58;;;;;;;12.75;9.05;;;20.30;61.30;;;;;;5007482;28;20066;-52
2022/05/03 13:01:24;;;;;;;12.05;9.60;;;20.40;61.40;;;;;;5011844;28;20041;-51
2022/05/03 13:03:50;;;;;;;11.68;9.07;;;20.30;60.70;;;;;;5009332;28;20046;-53
2022/05/03 13:06:17;;;;;;;10.25;8.85;;;20.20;61.40;;;;;;5012883;28;20095;-52
2022/05/03 13:08:43;;;;;;;11.25;9.63;;;20.30;61.40;;;;;;5005319;28;20065;-55
2022/05/03 13:11:10;;;;;;;15.25;9.82;;;20.30;60.70;;;;;;5011515;28;20034;-53
2022/05/03 13:13:38;;;;;;;11.27;9.90;;;20.20;61.20;;;;;;4993573;28;20516;-50
2022/05/03 13:16:03;;;;;;;12.13;10.40;;;20.10;61.50;;;;;;5026445;28;20026;-51
2022/05/03 13:18:30;;;;;;;14.93;10.05;;;19.80;61.70;;;;;;5031487;28;20044;-47
2022/05/03 13:20:55;;;;;;;13.27;10.95;;;19.90;61.70;;;;;;5031470;28;20033;-49
2022/05/03 13:23:21;;;;;;;15.15;10.55;;;19.90;61.60;;;;;;5014664;28;20041;-51
2022/05/03 13:25:47;;;;;;;12.65;10.25;;;20.10;61.40;;;;;;5011613;28;20133;-47